createdAt,value
2017-05-23T00:00:17.804Z,32.1
2017-05-23T00:01:20.783Z,32.1
2017-05-23T00:02:17.993Z,32.1
2017-05-23T00:03:17.973Z,32.1
2017-05-23T00:04:18.020Z,32.1
2017-05-23T00:05:21.054Z,32.1
2017-05-23T00:06:18.122Z,32.1
2017-05-23T00:07:18.118Z,32.1
2017-05-23T00:08:18.315Z,32.1
2017-05-23T00:09:21.204Z,32.1
2017-05-23T00:10:18.216Z,32.1
2017-05-23T00:11:18.368Z,32.1
2017-05-23T00:12:18.451Z,32.1
2017-05-23T00:13:18.494Z,32.1
2017-05-23T00:14:21.259Z,32.1
2017-05-23T00:15:18.533Z,32.1
2017-05-23T00:16:18.512Z,32.1
2017-05-23T00:17:18.651Z,32.1
2017-05-23T00:18:18.755Z,32.1
2017-05-23T00:19:18.729Z,32.1
2017-05-23T00:20:21.660Z,32.1
2017-05-23T00:21:21.729Z,32.1
2017-05-23T00:22:21.721Z,32.1
2017-05-23T00:23:18.878Z,32.1
2017-05-23T00:24:21.806Z,32.1
2017-05-23T00:25:18.984Z,32.1
2017-05-23T00:26:21.882Z,32.1
2017-05-23T00:27:19.260Z,32.1
2017-05-23T00:28:19.106Z,32.1
2017-05-23T00:29:19.240Z,32.1
2017-05-23T00:30:19.449Z,32.1
2017-05-23T00:31:22.942Z,32.1
2017-05-23T00:32:19.266Z,32.1
2017-05-23T00:33:19.319Z,32.1
2017-05-23T00:34:22.241Z,32.1
2017-05-23T00:35:19.552Z,32.1
2017-05-23T00:36:19.669Z,32.1
2017-05-23T00:37:19.699Z,32.1
2017-05-23T00:38:22.658Z,32
2017-05-23T00:39:27.174Z,32.1
2017-05-23T00:40:19.889Z,32.1
2017-05-23T00:41:19.936Z,32.1
2017-05-23T00:42:22.692Z,32.1
2017-05-23T00:43:22.863Z,32.1
2017-05-23T00:44:22.860Z,32.1
2017-05-23T00:45:20.133Z,32.1
2017-05-23T00:46:23.074Z,32.1
2017-05-23T00:47:23.159Z,32
2017-05-23T00:48:23.142Z,32.1
2017-05-23T00:49:20.463Z,32.1
2017-05-23T00:50:23.327Z,32.1
2017-05-23T00:51:20.539Z,32.1
2017-05-23T00:52:20.550Z,32.1
2017-05-23T00:53:20.549Z,32.1
2017-05-23T00:54:23.442Z,32.1
2017-05-23T00:55:20.504Z,32
2017-05-23T00:56:23.593Z,32.1
2017-05-23T00:57:20.821Z,32.1
2017-05-23T00:58:23.583Z,32
2017-05-23T00:59:23.610Z,32
2017-05-23T01:00:23.733Z,32
2017-05-23T01:01:23.726Z,32
2017-05-23T01:02:21.058Z,32
2017-05-23T01:03:23.835Z,32
2017-05-23T01:04:21.143Z,32
2017-05-23T01:05:21.138Z,32
2017-05-23T01:06:21.186Z,32
2017-05-23T01:07:21.357Z,32
2017-05-23T01:08:21.202Z,32
2017-05-23T01:09:21.437Z,32
2017-05-23T01:10:21.450Z,32
2017-05-23T01:11:24.203Z,32
2017-05-23T01:12:21.517Z,32
2017-05-23T01:13:24.255Z,32
2017-05-23T01:14:21.415Z,32.1
2017-05-23T01:15:21.596Z,32.1
2017-05-23T01:16:21.722Z,32.1
2017-05-23T01:17:24.471Z,32.1
2017-05-23T01:18:21.648Z,32
2017-05-23T01:19:21.817Z,32.1
2017-05-23T01:20:21.673Z,32.1
2017-05-23T01:21:21.697Z,32.1
2017-05-23T01:22:21.755Z,32.1
2017-05-23T01:23:21.814Z,32
2017-05-23T01:24:24.733Z,32
2017-05-23T01:25:24.849Z,32
2017-05-23T01:26:21.956Z,32
2017-05-23T01:27:22.089Z,32
2017-05-23T01:28:24.864Z,32
2017-05-23T01:29:22.165Z,32
2017-05-23T01:30:25.013Z,32.1
2017-05-23T01:31:22.090Z,32.1
2017-05-23T01:32:25.188Z,32.1
2017-05-23T01:33:25.192Z,32.1
2017-05-23T01:34:22.229Z,32.1
2017-05-23T01:35:25.282Z,32.1
2017-05-23T01:36:25.230Z,32
2017-05-23T01:37:22.402Z,32
2017-05-23T01:38:25.308Z,32
2017-05-23T01:39:25.369Z,32
2017-05-23T01:40:22.640Z,32
2017-05-23T01:41:22.659Z,32
2017-05-23T01:42:25.603Z,32
2017-05-23T01:43:25.738Z,32.1
2017-05-23T01:44:22.926Z,32.1
2017-05-23T01:45:25.677Z,32
2017-05-23T01:46:22.893Z,32
2017-05-23T01:47:23.062Z,32
2017-05-23T01:48:25.902Z,32
2017-05-23T01:49:26.142Z,32
2017-05-23T01:50:25.981Z,32
2017-05-23T01:51:26.128Z,32
2017-05-23T01:52:26.227Z,32
2017-05-23T01:53:26.197Z,32
2017-05-23T01:54:23.273Z,32
2017-05-23T01:55:26.356Z,32
2017-05-23T01:56:26.154Z,32
2017-05-23T01:57:23.396Z,32
2017-05-23T01:58:26.150Z,32
2017-05-23T01:59:23.307Z,32
2017-05-23T02:00:26.315Z,32
2017-05-23T02:01:23.709Z,32
2017-05-23T02:02:26.297Z,32
2017-05-23T02:03:23.631Z,32
2017-05-23T02:04:23.517Z,32
2017-05-23T02:05:26.663Z,32
2017-05-23T02:06:26.687Z,32
2017-05-23T02:07:26.919Z,32
2017-05-23T02:08:26.788Z,32
2017-05-23T02:09:24.026Z,32
2017-05-23T02:10:26.903Z,32
2017-05-23T02:11:27.001Z,32
2017-05-23T02:12:27.092Z,32
2017-05-23T02:13:27.049Z,32
2017-05-23T02:14:24.142Z,32
2017-05-23T02:15:27.136Z,32
2017-05-23T02:16:24.332Z,32
2017-05-23T02:17:27.190Z,32
2017-05-23T02:18:27.572Z,32
2017-05-23T02:19:27.383Z,32
2017-05-23T02:20:24.456Z,32
2017-05-23T02:21:27.339Z,32
2017-05-23T02:22:24.496Z,32
2017-05-23T02:23:27.515Z,32
2017-05-23T02:24:27.650Z,32
2017-05-23T02:25:24.672Z,32
2017-05-23T02:26:24.730Z,32
2017-05-23T02:27:27.622Z,32
2017-05-23T02:28:24.914Z,32
2017-05-23T02:29:27.709Z,32
2017-05-23T02:30:28.119Z,32
2017-05-23T02:31:27.796Z,31.9
2017-05-23T02:32:27.811Z,32
2017-05-23T02:33:27.870Z,31.9
2017-05-23T02:34:27.917Z,32
2017-05-23T02:35:27.985Z,31.9
2017-05-23T02:36:28.224Z,32
2017-05-23T02:37:25.346Z,32
2017-05-23T02:38:25.199Z,32
2017-05-23T02:39:28.130Z,32
2017-05-23T02:40:28.253Z,31.9
2017-05-23T02:41:28.385Z,32
2017-05-23T02:42:28.418Z,32
2017-05-23T02:43:25.539Z,32
2017-05-23T02:44:28.384Z,32
2017-05-23T02:45:25.558Z,32
2017-05-23T02:46:25.540Z,32
2017-05-23T02:47:25.746Z,31.9
2017-05-23T02:48:28.779Z,32
2017-05-23T02:49:28.512Z,32
2017-05-23T02:50:25.701Z,32
2017-05-23T02:51:25.882Z,32
2017-05-23T02:52:28.741Z,32
2017-05-23T02:53:25.908Z,32
2017-05-23T02:54:29.004Z,32
2017-05-23T02:55:26.103Z,32
2017-05-23T02:56:29.072Z,32
2017-05-23T02:57:28.944Z,32
2017-05-23T02:58:28.982Z,32
2017-05-23T02:59:29.029Z,31.9
2017-05-23T03:00:26.352Z,31.9
2017-05-23T03:01:26.397Z,32
2017-05-23T03:02:26.361Z,32
2017-05-23T03:03:29.137Z,32
2017-05-23T03:04:26.296Z,31.9
2017-05-23T03:05:29.171Z,32
2017-05-23T03:06:26.468Z,31.9
2017-05-23T03:07:29.377Z,31.9
2017-05-23T03:08:29.342Z,32
2017-05-23T03:09:29.373Z,32
2017-05-23T03:10:29.420Z,32
2017-05-23T03:11:26.588Z,32
2017-05-23T03:12:29.785Z,32
2017-05-23T03:13:26.720Z,31.9
2017-05-23T03:14:29.546Z,31.9
2017-05-23T03:15:29.700Z,32
2017-05-23T03:16:26.808Z,31.9
2017-05-23T03:17:26.830Z,31.9
2017-05-23T03:18:27.272Z,31.9
2017-05-23T03:19:29.974Z,31.9
2017-05-23T03:20:29.980Z,31.9
2017-05-23T03:21:30.019Z,31.9
2017-05-23T03:22:27.045Z,31.9
2017-05-23T03:23:27.267Z,31.9
2017-05-23T03:24:27.365Z,31.9
2017-05-23T03:25:27.168Z,31.9
2017-05-23T03:26:30.094Z,31.9
2017-05-23T03:27:30.270Z,32
2017-05-23T03:28:27.492Z,31.9
2017-05-23T03:29:27.551Z,32
2017-05-23T03:30:30.516Z,32
2017-05-23T03:31:27.422Z,32
2017-05-23T03:32:30.450Z,32
2017-05-23T03:33:30.524Z,31.9
2017-05-23T03:34:27.785Z,31.9
2017-05-23T03:35:30.548Z,31.9
2017-05-23T03:36:28.010Z,31.9
2017-05-23T03:37:27.787Z,31.9
2017-05-23T03:38:30.742Z,31.9
2017-05-23T03:39:27.837Z,31.9
2017-05-23T03:40:30.837Z,31.9
2017-05-23T03:41:27.950Z,31.9
2017-05-23T03:42:28.283Z,31.9
2017-05-23T03:43:30.878Z,31.9
2017-05-23T03:44:30.987Z,32
2017-05-23T03:45:28.196Z,31.9
2017-05-23T03:46:28.371Z,32
2017-05-23T03:47:28.392Z,31.9
2017-05-23T03:48:31.464Z,32
2017-05-23T03:49:31.279Z,32
2017-05-23T03:50:28.369Z,32
2017-05-23T03:51:31.266Z,32
2017-05-23T03:52:28.660Z,32
2017-05-23T03:53:31.367Z,32
2017-05-23T03:54:31.711Z,32
2017-05-23T03:55:31.472Z,32
2017-05-23T03:56:31.629Z,32
2017-05-23T03:57:28.935Z,32
2017-05-23T03:58:28.972Z,32
2017-05-23T03:59:28.881Z,32
2017-05-23T04:00:32.018Z,32
2017-05-23T04:01:28.980Z,32
2017-05-23T04:02:31.905Z,32
2017-05-23T04:03:32.061Z,32.1
2017-05-23T04:04:32.144Z,32.1
2017-05-23T04:05:32.122Z,32
2017-05-23T04:06:29.481Z,32.1
2017-05-23T04:07:29.308Z,32.1
2017-05-23T04:08:29.391Z,32.1
2017-05-23T04:09:29.379Z,32.1
2017-05-23T04:10:29.519Z,32.1
2017-05-23T04:11:30.288Z,32.1
2017-05-23T04:12:32.840Z,32.1
2017-05-23T04:13:32.595Z,32
2017-05-23T04:14:32.570Z,32.1
2017-05-23T04:15:29.828Z,32
2017-05-23T04:16:29.659Z,32.1
2017-05-23T04:17:32.753Z,32.1
2017-05-23T04:18:32.969Z,32.1
2017-05-23T04:19:32.851Z,32.1
2017-05-23T04:20:29.858Z,32.1
2017-05-23T04:21:30.003Z,32.1
2017-05-23T04:22:30.014Z,32.1
2017-05-23T04:23:30.094Z,32.1
2017-05-23T04:24:30.281Z,32.1
2017-05-23T04:25:32.942Z,32.1
2017-05-23T04:26:30.251Z,32.1
2017-05-23T04:27:30.277Z,32.1
2017-05-23T04:28:33.237Z,32.1
2017-05-23T04:29:33.288Z,32.1
2017-05-23T04:30:33.543Z,32.2
2017-05-23T04:31:30.377Z,32.2
2017-05-23T04:32:30.381Z,32.1
2017-05-23T04:33:33.307Z,32.2
2017-05-23T04:34:33.463Z,32.1
2017-05-23T04:35:30.504Z,32.1
2017-05-23T04:36:33.700Z,32.1
2017-05-23T04:37:30.740Z,32.2
2017-05-23T04:38:30.815Z,32.1
2017-05-23T04:39:33.693Z,32.2
2017-05-23T04:40:30.772Z,32.2
2017-05-23T04:41:33.827Z,32.2
2017-05-23T04:42:34.173Z,32.1
2017-05-23T04:43:33.881Z,32.2
2017-05-23T04:44:33.928Z,32.1
2017-05-23T04:45:31.229Z,32.2
2017-05-23T04:46:34.105Z,32
2017-05-23T04:47:34.209Z,31.6
2017-05-23T04:48:34.409Z,31.2
2017-05-23T04:49:31.255Z,30.7
2017-05-23T04:50:32.329Z,30.4
2017-05-23T04:51:31.421Z,30.1
2017-05-23T04:52:31.454Z,29.9
2017-05-23T04:53:32.091Z,29.6
2017-05-23T04:54:34.469Z,29.5
2017-05-23T04:55:34.702Z,29.3
2017-05-23T04:56:34.599Z,29.1
2017-05-23T04:57:31.743Z,28.9
2017-05-23T04:58:31.786Z,28.8
2017-05-23T04:59:34.645Z,28.7
2017-05-23T05:00:31.790Z,28.5
2017-05-23T05:01:35.422Z,28.4
2017-05-23T05:02:34.815Z,28.3
2017-05-23T05:03:34.841Z,28.3
2017-05-23T05:04:32.041Z,28.2
2017-05-23T05:05:34.965Z,28.2
2017-05-23T05:06:32.132Z,28.1
2017-05-23T05:07:32.030Z,28.1
2017-05-23T05:08:32.203Z,28
2017-05-23T05:09:32.283Z,28
2017-05-23T05:10:35.208Z,28
2017-05-23T05:11:32.249Z,28
2017-05-23T05:13:21.964Z,27.9
2017-05-23T05:14:19.351Z,27.9
2017-05-23T05:15:22.095Z,27.9
2017-05-23T05:16:19.255Z,27.9
2017-05-23T05:17:19.307Z,27.9
2017-05-23T05:18:22.258Z,27.9
2017-05-23T05:19:23.541Z,27.9
2017-05-23T05:20:19.632Z,27.8
2017-05-23T05:21:20.374Z,27.8
2017-05-23T05:22:22.520Z,27.8
2017-05-23T05:23:19.634Z,27.8
2017-05-23T05:24:19.719Z,27.8
2017-05-23T05:25:19.614Z,27.8
2017-05-23T05:26:22.745Z,27.8
2017-05-23T05:27:24.581Z,27.8
2017-05-23T05:28:19.958Z,27.7
2017-05-23T05:29:23.462Z,27.7
2017-05-23T05:30:23.049Z,27.7
2017-05-23T05:31:24.009Z,27.7
2017-05-23T05:32:20.984Z,27.6
2017-05-23T05:33:23.118Z,27.7
2017-05-23T05:34:20.202Z,27.6
2017-05-23T05:35:20.348Z,27.7
2017-05-23T05:36:20.343Z,27.6
2017-05-23T05:37:20.467Z,27.7
2017-05-23T05:38:23.330Z,27.6
2017-05-23T05:39:20.535Z,27.6
2017-05-23T05:40:20.563Z,27.7
2017-05-23T05:41:20.595Z,27.7
2017-05-23T05:42:21.188Z,27.8
2017-05-23T05:43:23.605Z,27.8
2017-05-23T05:44:23.614Z,27.9
2017-05-23T05:45:21.685Z,27.9
2017-05-23T05:46:23.804Z,27.9
2017-05-23T05:47:23.809Z,27.9
2017-05-23T05:48:24.022Z,27.9
2017-05-23T05:49:24.113Z,27.9
2017-05-23T05:50:24.251Z,28
2017-05-23T05:51:21.146Z,27.9
2017-05-23T05:52:21.215Z,28
2017-05-23T05:53:21.355Z,28
2017-05-23T05:54:24.521Z,28
2017-05-23T05:55:21.539Z,28
2017-05-23T05:56:21.463Z,28.1
2017-05-23T05:57:25.030Z,28.1
2017-05-23T05:58:21.707Z,28.2
2017-05-23T05:59:25.773Z,28.2
2017-05-23T06:00:21.595Z,28.3
2017-05-23T06:01:22.541Z,28.3
2017-05-23T06:02:25.233Z,28.3
2017-05-23T06:03:24.652Z,28.3
2017-05-23T06:04:24.753Z,28.4
2017-05-23T06:05:24.913Z,28.4
2017-05-23T06:06:22.109Z,28.3
2017-05-23T06:07:24.965Z,28.2
2017-05-23T06:08:22.057Z,28
2017-05-23T06:09:24.930Z,27.9
2017-05-23T06:10:25.116Z,27.8
2017-05-23T06:11:24.984Z,27.6
2017-05-23T06:12:22.293Z,27.5
2017-05-23T06:13:26.087Z,27.4
2017-05-23T06:14:25.712Z,27.3
2017-05-23T06:15:25.181Z,27.3
2017-05-23T06:16:23.884Z,27.2
2017-05-23T06:17:25.303Z,27.2
2017-05-23T06:18:22.552Z,27.1
2017-05-23T06:19:25.470Z,27
2017-05-23T06:20:22.435Z,27.1
2017-05-23T06:21:31.561Z,27.1
2017-05-23T06:22:25.472Z,27.1
2017-05-23T06:23:22.884Z,27.2
2017-05-23T06:24:26.351Z,27.2
2017-05-23T06:25:25.635Z,27.2
2017-05-23T06:26:25.730Z,27.3
2017-05-23T06:27:26.334Z,27.4
2017-05-23T06:28:23.727Z,27.4
2017-05-23T06:29:26.446Z,27.4
2017-05-23T06:30:23.077Z,27.4
2017-05-23T06:31:22.997Z,27.5
2017-05-23T06:32:26.533Z,27.6
2017-05-23T06:33:24.573Z,27.7
2017-05-23T06:34:23.226Z,27.8
2017-05-23T06:35:28.738Z,27.9
2017-05-23T06:36:26.375Z,27.9
2017-05-23T06:37:25.310Z,27.9
2017-05-23T06:38:25.102Z,27.9
2017-05-23T06:39:25.168Z,28
2017-05-23T06:40:28.006Z,28.1
2017-05-23T06:41:24.341Z,28.1
2017-05-23T06:42:25.296Z,28.2
2017-05-23T06:43:24.543Z,28.3
2017-05-23T06:44:27.549Z,28.3
2017-05-23T06:45:25.092Z,28.4
2017-05-23T06:46:26.951Z,28.4
2017-05-23T06:47:24.013Z,28.5
2017-05-23T06:48:24.625Z,28.5
2017-05-23T06:49:27.353Z,28.6
2017-05-23T06:50:24.131Z,28.7
2017-05-23T06:51:25.447Z,28.7
2017-05-23T06:52:27.769Z,28.8
2017-05-23T06:53:24.302Z,28.7
2017-05-23T06:54:24.529Z,28.6
2017-05-23T06:55:24.573Z,28.6
2017-05-23T06:56:27.529Z,28.6
2017-05-23T06:57:26.430Z,28.6
2017-05-23T06:58:27.556Z,28.6
2017-05-23T06:59:27.641Z,28.7
2017-05-23T07:00:27.564Z,28.7
2017-05-23T07:01:27.752Z,28.7
2017-05-23T07:02:27.680Z,28.8
2017-05-23T07:03:30.215Z,28.9
2017-05-23T07:04:27.847Z,28.9
2017-05-23T07:05:25.130Z,29
2017-05-23T07:06:28.938Z,29
2017-05-23T07:07:28.687Z,29.1
2017-05-23T07:08:25.764Z,29.1
2017-05-23T07:09:25.188Z,29.2
2017-05-23T07:10:29.686Z,29.2
2017-05-23T07:11:28.374Z,29.2
2017-05-23T07:12:25.414Z,29.1
2017-05-23T07:13:25.942Z,29.2
2017-05-23T07:14:25.456Z,29.2
2017-05-23T07:15:25.615Z,29.1
2017-05-23T07:16:29.930Z,29.1
2017-05-23T07:17:29.085Z,29.1
2017-05-23T07:18:28.783Z,29.1
2017-05-23T07:19:25.731Z,29.1
2017-05-23T07:20:26.455Z,29
2017-05-23T07:21:25.927Z,29.1
2017-05-23T07:22:26.986Z,29.2
2017-05-23T07:23:28.932Z,29.3
2017-05-23T07:24:29.452Z,29.4
2017-05-23T07:25:26.612Z,29.6
2017-05-23T07:26:25.989Z,29.8
2017-05-23T07:27:30.470Z,29.9
2017-05-23T07:28:30.796Z,30
2017-05-23T07:29:26.143Z,30.1
2017-05-23T07:30:27.587Z,30.2
2017-05-23T07:31:29.736Z,30.2
2017-05-23T07:32:26.195Z,30.2
2017-05-23T07:33:29.403Z,30.2
2017-05-23T07:34:32.232Z,30.2
2017-05-23T07:35:26.507Z,30.3
2017-05-23T07:36:26.377Z,30.3
2017-05-23T07:37:29.383Z,30.3
2017-05-23T07:38:29.534Z,30.4
2017-05-23T07:39:28.261Z,30.5
2017-05-23T07:40:26.540Z,30.5
2017-05-23T07:41:27.996Z,30.6
2017-05-23T07:42:29.759Z,30.8
2017-05-23T07:43:29.574Z,30.8
2017-05-23T07:44:26.790Z,30.8
2017-05-23T07:45:28.242Z,30.9
2017-05-23T07:46:27.617Z,30.9
2017-05-23T07:47:29.862Z,30.9
2017-05-23T07:48:27.746Z,30.9
2017-05-23T07:49:26.984Z,31.1
2017-05-23T07:50:27.543Z,31.2
2017-05-23T07:51:27.685Z,31.4
2017-05-23T07:52:31.336Z,31.5
2017-05-23T07:53:29.244Z,31.6
2017-05-23T07:54:27.865Z,31.7
2017-05-23T07:55:30.392Z,31.8
2017-05-23T07:56:28.848Z,31.8
2017-05-23T07:57:28.046Z,31.9
2017-05-23T07:58:30.511Z,32
2017-05-23T07:59:31.971Z,32
2017-05-23T08:00:30.530Z,32.1
2017-05-23T08:01:28.438Z,32.1
2017-05-23T08:02:27.767Z,32.2
2017-05-23T08:03:29.031Z,32.3
2017-05-23T08:04:30.810Z,32.3
2017-05-23T08:05:28.659Z,32.3
2017-05-23T08:06:30.929Z,32.4
2017-05-23T08:07:31.554Z,32.4
2017-05-23T08:08:28.696Z,32.4
2017-05-23T08:09:28.240Z,32.5
2017-05-23T08:10:29.955Z,32.5
2017-05-23T08:11:28.475Z,32.6
2017-05-23T08:12:32.588Z,32.7
2017-05-23T08:13:31.548Z,32.7
2017-05-23T08:14:32.099Z,32.7
2017-05-23T08:15:33.481Z,32.7
2017-05-23T08:16:30.801Z,32.7
2017-05-23T08:17:31.310Z,32.8
2017-05-23T08:18:33.414Z,33
2017-05-23T08:19:32.828Z,33
2017-05-23T08:20:31.622Z,33.1
2017-05-23T08:21:29.847Z,33
2017-05-23T08:22:28.827Z,33
2017-05-23T08:23:32.337Z,33
2017-05-23T08:24:31.667Z,33
2017-05-23T08:25:28.867Z,32.9
2017-05-23T08:26:28.879Z,32.8
2017-05-23T08:27:29.637Z,32.8
2017-05-23T08:28:29.321Z,32.7
2017-05-23T08:29:32.022Z,32.7
2017-05-23T08:30:29.218Z,32.7
2017-05-23T08:31:29.250Z,32.7
2017-05-23T08:32:30.716Z,32.7
2017-05-23T08:33:29.528Z,32.8
2017-05-23T08:34:29.277Z,32.9
2017-05-23T08:35:32.926Z,33
2017-05-23T08:36:32.618Z,33.1
2017-05-23T08:37:33.022Z,33.2
2017-05-23T08:38:33.968Z,33.2
2017-05-23T08:39:34.411Z,33.3
2017-05-23T08:40:33.061Z,33.5
2017-05-23T08:41:31.437Z,33.6
2017-05-23T08:42:32.437Z,33.7
2017-05-23T08:43:30.630Z,33.8
2017-05-23T08:44:31.608Z,33.8
2017-05-23T08:45:31.359Z,33.8
2017-05-23T08:46:31.702Z,33.7
2017-05-23T08:47:32.659Z,33.7
2017-05-23T08:48:35.268Z,33.6
2017-05-23T08:49:37.339Z,33.5
2017-05-23T08:50:34.117Z,33.4
2017-05-23T08:51:29.870Z,33.4
2017-05-23T08:52:30.063Z,33.3
2017-05-23T08:53:33.744Z,33.3
2017-05-23T08:54:35.947Z,33.3
2017-05-23T08:55:30.978Z,33.2
2017-05-23T08:56:33.073Z,33.2
2017-05-23T08:57:34.196Z,33.2
2017-05-23T08:58:33.818Z,33.2
2017-05-23T08:59:31.003Z,33.2
2017-05-23T09:00:31.124Z,33.2
2017-05-23T09:01:30.577Z,33.1
2017-05-23T09:02:31.360Z,33.1
2017-05-23T09:03:34.031Z,33.1
2017-05-23T09:04:30.707Z,33.1
2017-05-23T09:05:33.520Z,33.1
2017-05-23T09:06:34.595Z,33.1
2017-05-23T09:07:35.397Z,33.2
2017-05-23T09:08:34.478Z,33.2
2017-05-23T09:09:32.605Z,33.1
2017-05-23T09:10:31.656Z,33.2
2017-05-23T09:11:35.856Z,33.2
2017-05-23T09:12:34.570Z,33.2
2017-05-23T09:13:34.670Z,33.1
2017-05-23T09:14:31.201Z,33.2
2017-05-23T09:15:36.134Z,33.2
2017-05-23T09:16:34.221Z,33.1
2017-05-23T09:17:34.353Z,33.1
2017-05-23T09:18:34.766Z,33
2017-05-23T09:19:34.296Z,33.1
2017-05-23T09:20:35.003Z,33.1
2017-05-23T09:21:32.216Z,33.1
2017-05-23T09:22:34.637Z,33.1
2017-05-23T09:23:35.946Z,33.2
2017-05-23T09:24:33.634Z,33.2
2017-05-23T09:25:31.867Z,33.2
2017-05-23T09:26:33.435Z,33.2
2017-05-23T09:27:31.966Z,33.2
2017-05-23T09:28:33.594Z,33.3
2017-05-23T09:29:34.355Z,33.3
2017-05-23T09:30:34.410Z,33.3
2017-05-23T09:31:33.574Z,33.3
2017-05-23T09:32:33.698Z,33.3
2017-05-23T09:33:32.215Z,33.4
2017-05-23T09:34:32.789Z,33.3
2017-05-23T09:35:34.510Z,33.4
2017-05-23T09:36:34.071Z,33.4
2017-05-23T09:37:35.770Z,33.5
2017-05-23T09:38:34.812Z,33.4
2017-05-23T09:39:35.046Z,33.4
2017-05-23T09:40:33.169Z,33.4
2017-05-23T09:41:36.194Z,33.4
2017-05-23T09:42:34.483Z,33.4
2017-05-23T09:43:32.750Z,33.4
2017-05-23T09:44:33.731Z,33.4
2017-05-23T09:45:32.804Z,33.4
2017-05-23T09:46:33.305Z,33.4
2017-05-23T09:47:36.802Z,33.4
2017-05-23T09:48:35.875Z,33.4
2017-05-23T09:49:33.486Z,33.4
2017-05-23T09:50:35.933Z,33.3
2017-05-23T09:51:35.585Z,33.4
2017-05-23T09:52:37.475Z,33.3
2017-05-23T09:53:37.265Z,33.3
2017-05-23T09:54:37.575Z,33.3
2017-05-23T09:55:36.423Z,33.2
2017-05-23T09:56:34.207Z,33.2
2017-05-23T09:57:36.625Z,33.2
2017-05-23T09:58:36.963Z,33.2
2017-05-23T09:59:35.714Z,33.2
2017-05-23T10:00:36.501Z,33.3
2017-05-23T10:01:39.941Z,33.3
2017-05-23T10:02:36.688Z,33.3
2017-05-23T10:03:45.075Z,33.3
2017-05-23T10:04:43.047Z,33.4
2017-05-23T10:06:42.941Z,33.4
2017-05-23T10:07:42.978Z,33.4
2017-05-23T10:08:44.063Z,33.4
2017-05-23T10:09:42.917Z,33.4
2017-05-23T10:10:43.947Z,33.5
2017-05-23T10:12:52.073Z,33.4
2017-05-23T10:13:40.282Z,33.4
2017-05-23T10:14:42.290Z,33.4
2017-05-23T10:15:41.898Z,33.4
2017-05-23T10:16:40.276Z,33.4
2017-05-23T10:17:38.884Z,33.5
2017-05-23T10:18:42.628Z,33.5
2017-05-23T10:19:39.157Z,33.5
2017-05-23T10:20:44.247Z,33.5
2017-05-23T10:21:37.497Z,33.6
2017-05-23T10:22:39.348Z,33.6
2017-05-23T10:23:37.158Z,33.6
2017-05-23T10:24:38.191Z,33.5
2017-05-23T10:25:36.506Z,33.5
2017-05-23T10:26:38.069Z,33.6
2017-05-23T10:27:35.650Z,33.6
2017-05-23T10:28:36.320Z,33.6
2017-05-23T10:29:37.850Z,33.6
2017-05-23T10:30:39.651Z,33.7
2017-05-23T10:31:36.633Z,33.7
2017-05-23T10:32:39.456Z,33.7
2017-05-23T10:33:36.601Z,33.7
2017-05-23T10:34:40.644Z,33.7
2017-05-23T10:35:37.529Z,33.7
2017-05-23T10:36:37.444Z,33.7
2017-05-23T10:37:37.597Z,33.7
2017-05-23T10:38:39.517Z,33.7
2017-05-23T10:39:42.134Z,33.8
2017-05-23T10:40:40.373Z,33.8
2017-05-23T10:41:39.623Z,33.8
2017-05-23T10:42:43.598Z,33.8
2017-05-23T10:43:36.503Z,33.8
2017-05-23T10:44:40.249Z,33.8
2017-05-23T10:45:38.718Z,33.8
2017-05-23T10:46:39.422Z,33.8
2017-05-23T10:47:36.591Z,33.8
2017-05-23T10:48:38.589Z,33.8
2017-05-23T10:49:36.723Z,33.8
2017-05-23T10:50:38.674Z,33.9
2017-05-23T10:51:38.084Z,33.9
2017-05-23T10:52:38.508Z,33.9
2017-05-23T10:53:39.120Z,33.9
2017-05-23T10:54:40.013Z,33.9
2017-05-23T10:55:39.453Z,33.9
2017-05-23T10:56:38.102Z,33.9
2017-05-23T10:57:40.581Z,33.8
2017-05-23T10:58:41.438Z,33.8
2017-05-23T10:59:42.762Z,33.8
2017-05-23T11:00:40.230Z,33.8
2017-05-23T11:01:37.750Z,33.8
2017-05-23T11:02:38.804Z,33.8
2017-05-23T11:03:41.322Z,33.8
2017-05-23T11:04:43.728Z,33.8
2017-05-23T11:05:39.702Z,33.8
2017-05-23T11:06:39.057Z,33.8
2017-05-23T11:07:38.457Z,33.8
2017-05-23T11:08:39.217Z,33.8
2017-05-23T11:09:37.974Z,33.8
2017-05-23T11:10:38.721Z,33.7
2017-05-23T11:11:41.157Z,33.7
2017-05-23T11:12:37.343Z,33.7
2017-05-23T11:13:40.030Z,33.8
2017-05-23T11:14:40.786Z,33.8
2017-05-23T11:15:37.789Z,33.8
2017-05-23T11:16:41.741Z,33.8
2017-05-23T11:17:39.341Z,33.8
2017-05-23T11:18:41.711Z,33.7
2017-05-23T11:19:38.043Z,33.7
2017-05-23T11:20:38.203Z,33.7
2017-05-23T11:21:39.008Z,33.7
2017-05-23T11:22:38.161Z,33.8
2017-05-23T11:23:39.046Z,33.8
2017-05-23T11:24:39.812Z,33.7
2017-05-23T11:25:39.352Z,33.7
2017-05-23T11:26:43.557Z,33.7
2017-05-23T11:27:41.386Z,33.7
2017-05-23T11:28:38.686Z,33.7
2017-05-23T11:29:41.779Z,33.6
2017-05-23T11:30:40.265Z,33.5
2017-05-23T11:31:39.373Z,33.6
2017-05-23T11:32:39.975Z,33.5
2017-05-23T11:33:38.756Z,33.5
2017-05-23T11:34:40.060Z,33.5
2017-05-23T11:35:39.605Z,33.6
2017-05-23T11:36:38.242Z,33.6
2017-05-23T11:37:40.473Z,33.6
2017-05-23T11:38:38.352Z,33.6
2017-05-23T11:39:39.040Z,33.6
2017-05-23T11:40:42.606Z,33.6
2017-05-23T11:41:43.330Z,33.6
2017-05-23T11:42:42.820Z,33.6
2017-05-23T11:43:42.228Z,33.6
2017-05-23T11:44:41.764Z,33.6
2017-05-23T11:45:40.557Z,33.6
2017-05-23T11:46:41.920Z,33.5
2017-05-23T11:47:40.431Z,33.5
2017-05-23T11:48:38.948Z,33.5
2017-05-23T11:49:39.082Z,33.5
2017-05-23T11:50:39.040Z,33.5
2017-05-23T11:51:42.109Z,33.5
2017-05-23T11:52:40.850Z,33.5
2017-05-23T11:53:41.458Z,33.5
2017-05-23T11:54:42.892Z,33.5
2017-05-23T11:55:40.885Z,33.4
2017-05-23T11:56:40.341Z,33.6
2017-05-23T11:57:40.514Z,33.7
2017-05-23T11:58:43.851Z,33.7
2017-05-23T11:59:42.129Z,33.7
2017-05-23T12:00:44.059Z,33.7
2017-05-23T12:01:43.800Z,33.7
2017-05-23T12:02:40.358Z,33.7
2017-05-23T12:03:46.687Z,33.8
2017-05-23T12:04:43.652Z,33.8
2017-05-23T12:05:46.034Z,33.8
2017-05-23T12:06:48.609Z,33.8
2017-05-23T12:07:44.868Z,33.8
2017-05-23T12:08:45.096Z,33.8
2017-05-23T12:09:43.668Z,33.9
2017-05-23T12:10:44.118Z,33.9
2017-05-23T12:11:42.131Z,33.9
2017-05-23T12:12:40.937Z,33.9
2017-05-23T12:13:41.393Z,33.9
2017-05-23T12:14:42.482Z,33.9
2017-05-23T12:15:40.179Z,33.9
2017-05-23T12:16:43.585Z,33.9
2017-05-23T12:17:40.111Z,33.9
2017-05-23T12:18:42.488Z,34
2017-05-23T12:19:43.038Z,34
2017-05-23T12:20:41.587Z,34
2017-05-23T12:21:41.051Z,34
2017-05-23T12:22:45.422Z,34
2017-05-23T12:23:41.276Z,34
2017-05-23T12:24:40.656Z,34
2017-05-23T12:25:47.563Z,34
2017-05-23T12:26:42.703Z,34
2017-05-23T12:27:47.852Z,34
2017-05-23T12:28:42.361Z,34
2017-05-23T12:29:44.238Z,34
2017-05-23T12:30:42.042Z,34
2017-05-23T12:31:42.111Z,34.1
2017-05-23T12:32:43.949Z,34.1
2017-05-23T12:33:43.268Z,34.1
2017-05-23T12:34:43.131Z,34.1
2017-05-23T12:35:44.619Z,34.1
2017-05-23T12:36:42.554Z,34.1
2017-05-23T12:37:44.213Z,34
2017-05-23T12:38:51.855Z,34
2017-05-23T12:39:45.236Z,34
2017-05-23T12:40:45.018Z,34
2017-05-23T12:41:45.240Z,34
2017-05-23T12:42:44.996Z,34
2017-05-23T12:43:46.700Z,34
2017-05-23T12:44:45.534Z,34
2017-05-23T12:45:48.740Z,34
2017-05-23T12:46:51.220Z,34
2017-05-23T12:47:42.276Z,34
2017-05-23T12:48:49.109Z,34
2017-05-23T12:49:42.971Z,34.1
2017-05-23T12:50:53.365Z,34
2017-05-23T12:51:47.603Z,34
2017-05-23T12:52:42.552Z,34
2017-05-23T12:53:44.942Z,34
2017-05-23T12:54:44.259Z,34
2017-05-23T12:55:43.621Z,34
2017-05-23T12:56:42.869Z,34
2017-05-23T12:57:42.917Z,34
2017-05-23T12:58:42.874Z,34
2017-05-23T12:59:47.144Z,34
2017-05-23T13:00:46.661Z,34
2017-05-23T13:01:43.665Z,34
2017-05-23T13:02:44.012Z,34
2017-05-23T13:03:47.083Z,34
2017-05-23T13:04:44.218Z,33.9
2017-05-23T13:05:44.772Z,33.9
2017-05-23T13:06:44.703Z,34
2017-05-23T13:07:44.990Z,34
2017-05-23T13:08:45.212Z,34
2017-05-23T13:09:45.342Z,33.9
2017-05-23T13:10:46.411Z,34
2017-05-23T13:11:44.606Z,33.9
2017-05-23T13:12:43.777Z,34
2017-05-23T13:13:43.645Z,34
2017-05-23T13:14:46.729Z,34
2017-05-23T13:15:47.457Z,34
2017-05-23T13:16:46.547Z,34
2017-05-23T13:17:49.571Z,34
2017-05-23T13:18:48.422Z,34
2017-05-23T13:19:49.460Z,34
2017-05-23T13:20:47.285Z,34
2017-05-23T13:21:46.358Z,34
2017-05-23T13:22:45.081Z,34
2017-05-23T13:23:45.681Z,34
2017-05-23T13:24:44.343Z,34
2017-05-23T13:25:45.933Z,34
2017-05-23T13:26:50.435Z,34
2017-05-23T13:27:43.733Z,34
2017-05-23T13:28:44.523Z,34
2017-05-23T13:29:47.554Z,34
2017-05-23T13:30:46.897Z,33.9
2017-05-23T13:31:50.985Z,34
2017-05-23T13:32:48.860Z,34
2017-05-23T13:33:44.152Z,34
2017-05-23T13:34:44.813Z,34
2017-05-23T13:35:46.187Z,34
2017-05-23T13:36:44.249Z,34
2017-05-23T13:37:46.475Z,34